Cross City, FL (32628)

8:02 AM EST on February 10, 2016 (GMT -0500)
Dixie County High School WeatherSTEM | | Change Station
CLOSE
Current Station
Personal Weather Station
Location: Cross City, FL
Elevation: 88 ft
Nearby Weather Stations
Active Advisory: Freeze Watch, Freeze Warning Active Notice: Local Storm Report

Elev 88 ft 29.64 °N, 83.13 °W | Updated 10 minutes ago

Clear
Clear
37.9 °F
Feels Like 38 °F
N
2.0
Wind Variable Wind from NW
Gusts 5.0 mph

Today
High -- | Low -- °F
--% Chance of Precip.
Yesterday
High -- | Low -- °F
Precip. -- in
Pressure 30.22 in
Visibility 10.0 miles
Clouds Clear
Windchill 38 °F
Dew Point 25 °F
Humidity 59%
Rainfall 0.00 in
Snow Depth Not available.
7:16 AM 6:17 PM
Waxing Crescent, 5% visible
METAR K40J 101255Z AUTO 29007KT 10SM CLR 02/M06 A3022 RMK AO2 T00171065
Pressure 30.22 in
Visibility 10.0 miles
Clouds Clear
Windchill 38 °F
Dew Point 25 °F
Humidity 59%
Rainfall 0.00 in
Snow Depth Not available.
7:16 AM 6:17 PM
Waxing Crescent, 5% visible
METAR K40J 101255Z AUTO 29007KT 10SM CLR 02/M06 A3022 RMK AO2 T00171065

10-Day Weather Forecast

Almanac

Astronomy

Feb. 10, 2016 Rise Set
Actual Time
Civil Twilight
Nautical Twilight
Astronomical Twilight
Moon
Length of Visible Light
Length of Day
Tomorrow will be .
, % of the Moon is Illuminated

Today's Extremes

State Highs State Lows

Community

WunderPhotos

Upload Photos

1,891,838 photos uploaded!

WunderBlog® & News

Nearby

Air Quality

  Air Quality AQ Index Pollutant
Not available.

Snow Depth

Station Depth Elevation

Earthquake Activity

City Distance Mag. Time & Date
Minimum magnitude displayed is 2.5.

Coastal Water Temperatures

Place Temperature

Stations

Nearby Weather Stations

Station Location Temp. Windchill Dew Point Humidity Wind Precip. Elev Updated Type
                   

Watches & Warnings

Freeze Watch, Freeze Warning
Issued: 3:14 AM CST Feb. 10, 2016 – National Weather Service

... Freeze warning remains in effect until 9 am EST /8 am CST/
this morning...
... Freeze watch in effect from late tonight through Thursday
morning...

The National Weather Service in Tallahassee has issued a freeze
watch... which is in effect from late tonight through Thursday
morning.

* Min temperatures this morning... 28 to 31 degrees.

* Min temperatures Thursday morning... 25 to 30 degrees.

Precautionary/preparedness actions...

A freeze warning means sub-freezing temperatures are imminent or
highly likely. Exposure to freezing temperatures may damage some
unprotected... sensitive vegetation.

A freeze watch means sub-freezing temperatures are possible.
These conditions could kill crops and other sensitive vegetation.